sensor_id;sensor_type;location;lat;lon;timestamp;P1;durP1;ratioP1;P2;durP2;ratioP2
12780;SDS011;6454;43.304;24.344;2023-03-24T00:02:04;9.70;;;7.43;;
12780;SDS011;6454;43.304;24.344;2023-03-24T00:04:32;7.85;;;7.05;;
12780;SDS011;6454;43.304;24.344;2023-03-24T00:06:59;10.55;;;7.55;;
12780;SDS011;6454;43.304;24.344;2023-03-24T00:09:29;8.15;;;6.90;;
12780;SDS011;6454;43.304;24.344;2023-03-24T00:11:56;8.48;;;7.57;;
12780;SDS011;6454;43.304;24.344;2023-03-24T00:14:23;8.05;;;6.90;;
12780;SDS011;6454;43.304;24.344;2023-03-24T00:16:50;7.63;;;6.78;;
12780;SDS011;6454;43.304;24.344;2023-03-24T00:19:18;11.15;;;7.07;;
12780;SDS011;6454;43.304;24.344;2023-03-24T00:21:46;10.07;;;7.35;;
12780;SDS011;6454;43.304;24.344;2023-03-24T00:24:13;7.93;;;6.80;;
12780;SDS011;6454;43.304;24.344;2023-03-24T00:26:41;8.18;;;6.80;;
12780;SDS011;6454;43.304;24.344;2023-03-24T00:29:09;7.78;;;6.90;;
12780;SDS011;6454;43.304;24.344;2023-03-24T00:31:37;7.20;;;6.50;;
12780;SDS011;6454;43.304;24.344;2023-03-24T00:34:04;7.57;;;6.20;;
12780;SDS011;6454;43.304;24.344;2023-03-24T00:36:33;7.50;;;6.07;;
12780;SDS011;6454;43.304;24.344;2023-03-24T00:39:00;6.65;;;6.05;;
12780;SDS011;6454;43.304;24.344;2023-03-24T00:41:28;9.20;;;6.72;;
12780;SDS011;6454;43.304;24.344;2023-03-24T00:43:57;7.53;;;6.60;;
12780;SDS011;6454;43.304;24.344;2023-03-24T00:46:27;8.93;;;6.70;;
12780;SDS011;6454;43.304;24.344;2023-03-24T00:48:54;7.23;;;6.23;;
12780;SDS011;6454;43.304;24.344;2023-03-24T00:51:28;10.43;;;6.40;;
12780;SDS011;6454;43.304;24.344;2023-03-24T00:53:56;8.43;;;6.40;;
12780;SDS011;6454;43.304;24.344;2023-03-24T00:56:24;7.85;;;6.13;;
12780;SDS011;6454;43.304;24.344;2023-03-24T00:58:52;6.70;;;5.97;;
12780;SDS011;6454;43.304;24.344;2023-03-24T01:01:23;7.00;;;6.17;;
12780;SDS011;6454;43.304;24.344;2023-03-24T01:03:53;6.80;;;6.10;;
12780;SDS011;6454;43.304;24.344;2023-03-24T01:06:21;7.35;;;6.53;;
12780;SDS011;6454;43.304;24.344;2023-03-24T01:08:49;7.00;;;5.95;;
12780;SDS011;6454;43.304;24.344;2023-03-24T01:11:18;7.43;;;6.07;;
12780;SDS011;6454;43.304;24.344;2023-03-24T01:13:46;6.07;;;5.28;;
12780;SDS011;6454;43.304;24.344;2023-03-24T01:16:14;7.55;;;5.80;;
12780;SDS011;6454;43.304;24.344;2023-03-24T01:18:42;5.53;;;4.90;;
12780;SDS011;6454;43.304;24.344;2023-03-24T01:21:09;6.43;;;5.73;;
12780;SDS011;6454;43.304;24.344;2023-03-24T01:23:37;6.10;;;5.40;;
12780;SDS011;6454;43.304;24.344;2023-03-24T01:26:06;5.80;;;5.20;;
12780;SDS011;6454;43.304;24.344;2023-03-24T01:28:35;8.33;;;5.40;;
12780;SDS011;6454;43.304;24.344;2023-03-24T01:31:05;6.80;;;6.10;;
12780;SDS011;6454;43.304;24.344;2023-03-24T01:33:34;6.27;;;5.63;;
12780;SDS011;6454;43.304;24.344;2023-03-24T01:36:03;6.80;;;5.60;;
12780;SDS011;6454;43.304;24.344;2023-03-24T01:38:30;7.47;;;5.97;;
12780;SDS011;6454;43.304;24.344;2023-03-24T01:40:57;5.53;;;4.97;;
12780;SDS011;6454;43.304;24.344;2023-03-24T01:43:25;6.07;;;4.95;;
12780;SDS011;6454;43.304;24.344;2023-03-24T01:46:00;6.33;;;5.73;;
12780;SDS011;6454;43.304;24.344;2023-03-24T01:48:33;5.93;;;5.32;;
12780;SDS011;6454;43.304;24.344;2023-03-24T01:51:06;6.13;;;5.13;;
12780;SDS011;6454;43.304;24.344;2023-03-24T01:53:39;7.20;;;6.00;;
12780;SDS011;6454;43.304;24.344;2023-03-24T01:56:09;6.40;;;5.17;;
12780;SDS011;6454;43.304;24.344;2023-03-24T01:58:38;7.63;;;5.03;;
12780;SDS011;6454;43.304;24.344;2023-03-24T02:01:08;6.55;;;5.50;;
12780;SDS011;6454;43.304;24.344;2023-03-24T02:03:36;5.70;;;4.90;;
12780;SDS011;6454;43.304;24.344;2023-03-24T02:06:07;6.07;;;5.20;;
12780;SDS011;6454;43.304;24.344;2023-03-24T02:08:37;6.43;;;4.73;;
12780;SDS011;6454;43.304;24.344;2023-03-24T02:11:07;5.40;;;4.38;;
12780;SDS011;6454;43.304;24.344;2023-03-24T02:13:34;7.20;;;4.63;;
12780;SDS011;6454;43.304;24.344;2023-03-24T02:16:09;5.13;;;4.63;;
12780;SDS011;6454;43.304;24.344;2023-03-24T02:18:51;5.90;;;4.70;;
12780;SDS011;6454;43.304;24.344;2023-03-24T02:21:33;5.57;;;4.60;;
12780;SDS011;6454;43.304;24.344;2023-03-24T02:27:38;5.10;;;4.40;;
12780;SDS011;6454;43.304;24.344;2023-03-24T02:39:50;8.17;;;5.37;;
12780;SDS011;6454;43.304;24.344;2023-03-24T02:42:22;6.90;;;5.60;;
12780;SDS011;6454;43.304;24.344;2023-03-24T02:44:58;5.83;;;5.27;;
12780;SDS011;6454;43.304;24.344;2023-03-24T02:47:34;5.83;;;5.23;;
12780;SDS011;6454;43.304;24.344;2023-03-24T02:50:12;6.23;;;5.57;;
12780;SDS011;6454;43.304;24.344;2023-03-24T02:52:45;9.80;;;5.90;;
12780;SDS011;6454;43.304;24.344;2023-03-24T02:55:16;6.20;;;5.60;;
12780;SDS011;6454;43.304;24.344;2023-03-24T02:57:48;6.60;;;5.40;;
12780;SDS011;6454;43.304;24.344;2023-03-24T03:00:21;6.70;;;5.03;;
12780;SDS011;6454;43.304;24.344;2023-03-24T03:02:56;7.60;;;5.27;;
12780;SDS011;6454;43.304;24.344;2023-03-24T03:05:26;6.83;;;5.77;;
12780;SDS011;6454;43.304;24.344;2023-03-24T03:07:57;7.50;;;5.57;;
12780;SDS011;6454;43.304;24.344;2023-03-24T03:10:28;6.47;;;5.20;;
12780;SDS011;6454;43.304;24.344;2023-03-24T03:12:58;5.53;;;4.93;;
12780;SDS011;6454;43.304;24.344;2023-03-24T03:15:31;6.50;;;5.50;;
12780;SDS011;6454;43.304;24.344;2023-03-24T03:18:04;6.07;;;5.20;;
12780;SDS011;6454;43.304;24.344;2023-03-24T03:20:37;5.67;;;5.10;;
12780;SDS011;6454;43.304;24.344;2023-03-24T03:23:14;8.03;;;5.80;;
12780;SDS011;6454;43.304;24.344;2023-03-24T03:25:46;6.37;;;5.50;;
12780;SDS011;6454;43.304;24.344;2023-03-24T03:28:17;6.47;;;5.83;;
12780;SDS011;6454;43.304;24.344;2023-03-24T03:30:50;9.03;;;5.80;;
12780;SDS011;6454;43.304;24.344;2023-03-24T03:33:20;6.77;;;4.90;;
12780;SDS011;6454;43.304;24.344;2023-03-24T03:35:51;6.13;;;5.40;;
12780;SDS011;6454;43.304;24.344;2023-03-24T03:38:21;7.10;;;4.53;;
12780;SDS011;6454;43.304;24.344;2023-03-24T03:40:53;5.17;;;4.53;;
12780;SDS011;6454;43.304;24.344;2023-03-24T03:43:23;4.90;;;4.20;;
12780;SDS011;6454;43.304;24.344;2023-03-24T03:45:51;5.97;;;4.80;;
12780;SDS011;6454;43.304;24.344;2023-03-24T03:48:18;6.00;;;4.73;;
12780;SDS011;6454;43.304;24.344;2023-03-24T03:50:45;6.73;;;5.47;;
12780;SDS011;6454;43.304;24.344;2023-03-24T03:53:14;7.87;;;5.33;;
12780;SDS011;6454;43.304;24.344;2023-03-24T03:55:44;5.43;;;4.93;;
12780;SDS011;6454;43.304;24.344;2023-03-24T03:58:12;6.23;;;5.00;;
12780;SDS011;6454;43.304;24.344;2023-03-24T04:00:39;5.33;;;4.77;;
12780;SDS011;6454;43.304;24.344;2023-03-24T04:03:13;6.87;;;5.60;;
12780;SDS011;6454;43.304;24.344;2023-03-24T04:05:55;6.80;;;5.13;;
12780;SDS011;6454;43.304;24.344;2023-03-24T04:08:30;5.70;;;4.90;;
12780;SDS011;6454;43.304;24.344;2023-03-24T04:11:24;6.20;;;4.97;;
12780;SDS011;6454;43.304;24.344;2023-03-24T04:14:10;5.50;;;4.70;;
12780;SDS011;6454;43.304;24.344;2023-03-24T04:16:48;5.27;;;4.57;;
12780;SDS011;6454;43.304;24.344;2023-03-24T04:19:35;5.67;;;4.47;;
12780;SDS011;6454;43.304;24.344;2023-03-24T04:22:17;5.17;;;4.67;;
12780;SDS011;6454;43.304;24.344;2023-03-24T04:24:51;6.13;;;4.80;;
12780;SDS011;6454;43.304;24.344;2023-03-24T04:27:22;5.20;;;4.33;;
12780;SDS011;6454;43.304;24.344;2023-03-24T04:29:56;5.50;;;4.30;;
12780;SDS011;6454;43.304;24.344;2023-03-24T04:32:34;5.23;;;4.57;;
12780;SDS011;6454;43.304;24.344;2023-03-24T04:35:08;7.50;;;4.73;;
12780;SDS011;6454;43.304;24.344;2023-03-24T04:37:39;4.87;;;4.20;;
12780;SDS011;6454;43.304;24.344;2023-03-24T04:40:07;5.27;;;4.63;;
12780;SDS011;6454;43.304;24.344;2023-03-24T04:42:38;5.30;;;4.17;;
12780;SDS011;6454;43.304;24.344;2023-03-24T04:45:10;7.00;;;4.50;;
12780;SDS011;6454;43.304;24.344;2023-03-24T04:47:40;5.77;;;5.03;;
12780;SDS011;6454;43.304;24.344;2023-03-24T04:50:11;6.67;;;5.87;;
12780;SDS011;6454;43.304;24.344;2023-03-24T04:52:38;9.40;;;5.83;;
12780;SDS011;6454;43.304;24.344;2023-03-24T04:55:21;8.73;;;6.30;;
12780;SDS011;6454;43.304;24.344;2023-03-24T04:58:01;11.40;;;9.13;;
12780;SDS011;6454;43.304;24.344;2023-03-24T05:00:30;10.77;;;8.97;;
12780;SDS011;6454;43.304;24.344;2023-03-24T05:02:57;9.07;;;7.33;;
12780;SDS011;6454;43.304;24.344;2023-03-24T05:05:24;12.00;;;6.97;;
12780;SDS011;6454;43.304;24.344;2023-03-24T05:07:51;11.03;;;7.37;;
12780;SDS011;6454;43.304;24.344;2023-03-24T05:10:18;8.43;;;6.77;;
12780;SDS011;6454;43.304;24.344;2023-03-24T05:12:45;9.33;;;7.37;;
12780;SDS011;6454;43.304;24.344;2023-03-24T05:15:12;13.87;;;7.80;;
12780;SDS011;6454;43.304;24.344;2023-03-24T05:17:40;16.87;;;8.57;;
12780;SDS011;6454;43.304;24.344;2023-03-24T05:20:08;12.30;;;8.37;;
12780;SDS011;6454;43.304;24.344;2023-03-24T05:22:36;11.03;;;8.57;;
12780;SDS011;6454;43.304;24.344;2023-03-24T05:25:03;11.50;;;7.80;;
12780;SDS011;6454;43.304;24.344;2023-03-24T05:27:31;23.67;;;11.13;;
12780;SDS011;6454;43.304;24.344;2023-03-24T05:29:58;11.93;;;7.50;;
12780;SDS011;6454;43.304;24.344;2023-03-24T05:32:24;10.00;;;7.50;;
12780;SDS011;6454;43.304;24.344;2023-03-24T05:34:52;15.95;;;7.00;;
12780;SDS011;6454;43.304;24.344;2023-03-24T05:37:19;8.95;;;6.75;;
12780;SDS011;6454;43.304;24.344;2023-03-24T05:39:46;14.10;;;7.53;;
12780;SDS011;6454;43.304;24.344;2023-03-24T05:42:13;14.85;;;8.85;;
12780;SDS011;6454;43.304;24.344;2023-03-24T05:44:41;26.08;;;13.40;;
12780;SDS011;6454;43.304;24.344;2023-03-24T05:47:08;14.68;;;8.88;;
12780;SDS011;6454;43.304;24.344;2023-03-24T05:49:36;8.43;;;6.05;;
12780;SDS011;6454;43.304;24.344;2023-03-24T05:52:05;11.80;;;7.47;;
12780;SDS011;6454;43.304;24.344;2023-03-24T05:54:33;6.53;;;5.80;;
12780;SDS011;6454;43.304;24.344;2023-03-24T05:57:00;5.85;;;5.22;;
12780;SDS011;6454;43.304;24.344;2023-03-24T05:59:27;6.68;;;4.88;;
12780;SDS011;6454;43.304;24.344;2023-03-24T06:01:53;9.48;;;6.60;;
12780;SDS011;6454;43.304;24.344;2023-03-24T06:04:22;10.38;;;7.93;;
12780;SDS011;6454;43.304;24.344;2023-03-24T06:06:49;8.85;;;5.18;;
12780;SDS011;6454;43.304;24.344;2023-03-24T06:09:17;5.20;;;3.95;;
12780;SDS011;6454;43.304;24.344;2023-03-24T06:11:44;6.03;;;4.32;;
12780;SDS011;6454;43.304;24.344;2023-03-24T06:14:11;6.38;;;4.43;;
12780;SDS011;6454;43.304;24.344;2023-03-24T06:16:37;5.53;;;4.25;;
12780;SDS011;6454;43.304;24.344;2023-03-24T06:19:04;6.18;;;4.10;;
12780;SDS011;6454;43.304;24.344;2023-03-24T06:21:32;4.20;;;3.80;;
12780;SDS011;6454;43.304;24.344;2023-03-24T06:23:59;4.57;;;4.18;;
12780;SDS011;6454;43.304;24.344;2023-03-24T06:26:28;4.50;;;4.10;;
12780;SDS011;6454;43.304;24.344;2023-03-24T06:28:55;4.68;;;4.28;;
12780;SDS011;6454;43.304;24.344;2023-03-24T06:31:22;4.63;;;4.13;;
12780;SDS011;6454;43.304;24.344;2023-03-24T06:33:51;5.22;;;3.90;;
12780;SDS011;6454;43.304;24.344;2023-03-24T06:36:18;5.60;;;4.45;;
12780;SDS011;6454;43.304;24.344;2023-03-24T06:38:47;5.82;;;3.72;;
12780;SDS011;6454;43.304;24.344;2023-03-24T06:41:14;4.40;;;3.70;;
12780;SDS011;6454;43.304;24.344;2023-03-24T06:43:42;4.50;;;4.10;;
12780;SDS011;6454;43.304;24.344;2023-03-24T06:46:09;4.55;;;4.05;;
12780;SDS011;6454;43.304;24.344;2023-03-24T06:48:36;4.07;;;3.70;;
12780;SDS011;6454;43.304;24.344;2023-03-24T06:51:03;4.45;;;3.85;;
12780;SDS011;6454;43.304;24.344;2023-03-24T06:53:31;3.92;;;3.17;;
12780;SDS011;6454;43.304;24.344;2023-03-24T06:55:58;4.30;;;3.90;;
12780;SDS011;6454;43.304;24.344;2023-03-24T06:58:25;5.93;;;4.05;;
12780;SDS011;6454;43.304;24.344;2023-03-24T07:00:53;4.75;;;3.95;;
12780;SDS011;6454;43.304;24.344;2023-03-24T07:03:20;4.05;;;3.35;;
12780;SDS011;6454;43.304;24.344;2023-03-24T07:05:47;3.55;;;3.25;;
12780;SDS011;6454;43.304;24.344;2023-03-24T07:08:14;4.15;;;3.42;;
12780;SDS011;6454;43.304;24.344;2023-03-24T07:10:42;4.45;;;3.40;;
12780;SDS011;6454;43.304;24.344;2023-03-24T07:13:08;3.75;;;3.45;;
12780;SDS011;6454;43.304;24.344;2023-03-24T07:15:35;5.30;;;3.45;;
12780;SDS011;6454;43.304;24.344;2023-03-24T07:18:04;3.55;;;3.25;;
12780;SDS011;6454;43.304;24.344;2023-03-24T07:20:31;3.10;;;2.80;;
12780;SDS011;6454;43.304;24.344;2023-03-24T07:22:57;6.82;;;3.78;;
12780;SDS011;6454;43.304;24.344;2023-03-24T07:25:24;4.22;;;3.35;;
12780;SDS011;6454;43.304;24.344;2023-03-24T07:27:52;7.88;;;4.72;;
12780;SDS011;6454;43.304;24.344;2023-03-24T07:30:19;6.20;;;4.15;;
12780;SDS011;6454;43.304;24.344;2023-03-24T07:32:46;4.10;;;3.65;;
12780;SDS011;6454;43.304;24.344;2023-03-24T07:35:14;4.22;;;3.80;;
12780;SDS011;6454;43.304;24.344;2023-03-24T07:37:42;4.15;;;3.75;;
12780;SDS011;6454;43.304;24.344;2023-03-24T07:40:10;3.75;;;3.40;;
12780;SDS011;6454;43.304;24.344;2023-03-24T07:42:38;4.28;;;3.72;;
12780;SDS011;6454;43.304;24.344;2023-03-24T07:45:07;4.28;;;3.67;;
12780;SDS011;6454;43.304;24.344;2023-03-24T07:47:34;4.05;;;3.63;;
12780;SDS011;6454;43.304;24.344;2023-03-24T07:50:02;3.67;;;3.38;;
12780;SDS011;6454;43.304;24.344;2023-03-24T07:52:35;3.78;;;3.47;;
12780;SDS011;6454;43.304;24.344;2023-03-24T07:55:02;4.22;;;3.83;;
12780;SDS011;6454;43.304;24.344;2023-03-24T07:57:30;5.30;;;3.63;;
12780;SDS011;6454;43.304;24.344;2023-03-24T07:59:59;6.55;;;3.60;;
12780;SDS011;6454;43.304;24.344;2023-03-24T08:02:26;3.78;;;3.47;;
12780;SDS011;6454;43.304;24.344;2023-03-24T08:04:52;3.58;;;3.28;;
12780;SDS011;6454;43.304;24.344;2023-03-24T08:07:20;4.40;;;3.97;;
12780;SDS011;6454;43.304;24.344;2023-03-24T08:09:48;3.92;;;3.53;;
12780;SDS011;6454;43.304;24.344;2023-03-24T08:12:15;4.28;;;3.88;;
12780;SDS011;6454;43.304;24.344;2023-03-24T08:14:42;3.88;;;3.47;;
12780;SDS011;6454;43.304;24.344;2023-03-24T08:17:08;4.05;;;3.65;;
12780;SDS011;6454;43.304;24.344;2023-03-24T08:19:36;4.55;;;4.15;;
12780;SDS011;6454;43.304;24.344;2023-03-24T08:22:03;4.85;;;3.72;;
12780;SDS011;6454;43.304;24.344;2023-03-24T08:24:30;4.35;;;3.92;;
12780;SDS011;6454;43.304;24.344;2023-03-24T08:26:58;4.70;;;4.20;;
12780;SDS011;6454;43.304;24.344;2023-03-24T08:29:27;4.35;;;3.78;;
12780;SDS011;6454;43.304;24.344;2023-03-24T08:31:53;4.47;;;4.07;;
12780;SDS011;6454;43.304;24.344;2023-03-24T08:34:20;4.10;;;3.70;;
12780;SDS011;6454;43.304;24.344;2023-03-24T08:36:49;4.18;;;3.78;;
12780;SDS011;6454;43.304;24.344;2023-03-24T08:39:15;6.07;;;3.85;;
12780;SDS011;6454;43.304;24.344;2023-03-24T08:41:42;5.32;;;3.88;;
12780;SDS011;6454;43.304;24.344;2023-03-24T08:44:11;5.65;;;3.88;;
12780;SDS011;6454;43.304;24.344;2023-03-24T08:46:38;4.45;;;4.05;;
12780;SDS011;6454;43.304;24.344;2023-03-24T08:49:05;4.75;;;4.20;;
12780;SDS011;6454;43.304;24.344;2023-03-24T08:51:33;4.47;;;4.07;;
12780;SDS011;6454;43.304;24.344;2023-03-24T08:54:00;4.80;;;4.40;;
12780;SDS011;6454;43.304;24.344;2023-03-24T08:56:28;5.43;;;4.50;;
12780;SDS011;6454;43.304;24.344;2023-03-24T08:58:55;4.80;;;4.07;;
12780;SDS011;6454;43.304;24.344;2023-03-24T09:01:23;5.82;;;4.18;;
12780;SDS011;6454;43.304;24.344;2023-03-24T09:03:50;4.93;;;4.18;;
12780;SDS011;6454;43.304;24.344;2023-03-24T09:06:17;6.55;;;3.88;;
12780;SDS011;6454;43.304;24.344;2023-03-24T09:08:44;7.10;;;4.53;;
12780;SDS011;6454;43.304;24.344;2023-03-24T09:11:12;6.25;;;4.75;;
12780;SDS011;6454;43.304;24.344;2023-03-24T09:13:41;5.45;;;4.35;;
12780;SDS011;6454;43.304;24.344;2023-03-24T09:16:08;4.70;;;4.30;;
12780;SDS011;6454;43.304;24.344;2023-03-24T09:18:36;5.68;;;4.70;;
12780;SDS011;6454;43.304;24.344;2023-03-24T09:21:03;4.32;;;3.92;;
12780;SDS011;6454;43.304;24.344;2023-03-24T09:23:31;5.35;;;4.50;;
12780;SDS011;6454;43.304;24.344;2023-03-24T09:25:59;5.00;;;3.85;;
12780;SDS011;6454;43.304;24.344;2023-03-24T09:28:26;4.75;;;4.35;;
12780;SDS011;6454;43.304;24.344;2023-03-24T09:30:57;7.80;;;4.35;;
12780;SDS011;6454;43.304;24.344;2023-03-24T09:33:24;5.38;;;4.30;;
12780;SDS011;6454;43.304;24.344;2023-03-24T09:35:55;6.47;;;4.05;;
12780;SDS011;6454;43.304;24.344;2023-03-24T09:38:22;6.18;;;4.00;;
12780;SDS011;6454;43.304;24.344;2023-03-24T09:40:50;5.97;;;4.30;;
12780;SDS011;6454;43.304;24.344;2023-03-24T09:43:22;6.53;;;5.30;;
12780;SDS011;6454;43.304;24.344;2023-03-24T09:45:55;5.65;;;4.30;;
12780;SDS011;6454;43.304;24.344;2023-03-24T09:48:27;4.50;;;4.10;;
12780;SDS011;6454;43.304;24.344;2023-03-24T09:51:02;6.15;;;4.55;;
12780;SDS011;6454;43.304;24.344;2023-03-24T09:53:34;4.60;;;4.05;;
12780;SDS011;6454;43.304;24.344;2023-03-24T09:56:10;4.20;;;3.80;;
12780;SDS011;6454;43.304;24.344;2023-03-24T09:58:38;4.15;;;3.75;;
12780;SDS011;6454;43.304;24.344;2023-03-24T10:01:08;10.13;;;9.13;;
12780;SDS011;6454;43.304;24.344;2023-03-24T10:03:38;9.23;;;8.35;;
12780;SDS011;6454;43.304;24.344;2023-03-24T10:06:08;4.03;;;3.72;;
12780;SDS011;6454;43.304;24.344;2023-03-24T10:08:42;3.95;;;3.65;;
12780;SDS011;6454;43.304;24.344;2023-03-24T10:11:16;4.57;;;3.65;;
12780;SDS011;6454;43.304;24.344;2023-03-24T10:13:54;4.85;;;3.67;;
12780;SDS011;6454;43.304;24.344;2023-03-24T10:16:29;5.15;;;3.50;;
12780;SDS011;6454;43.304;24.344;2023-03-24T10:19:03;4.72;;;3.58;;
12780;SDS011;6454;43.304;24.344;2023-03-24T10:21:45;5.90;;;4.90;;
12780;SDS011;6454;43.304;24.344;2023-03-24T10:24:23;5.22;;;3.40;;
12780;SDS011;6454;43.304;24.344;2023-03-24T10:26:58;4.05;;;3.30;;
12780;SDS011;6454;43.304;24.344;2023-03-24T10:29:31;3.35;;;3.03;;
12780;SDS011;6454;43.304;24.344;2023-03-24T10:32:01;3.22;;;2.75;;
12780;SDS011;6454;43.304;24.344;2023-03-24T10:34:37;7.32;;;6.65;;
12780;SDS011;6454;43.304;24.344;2023-03-24T10:37:10;25.58;;;23.02;;
12780;SDS011;6454;43.304;24.344;2023-03-24T10:39:39;3.90;;;3.03;;
12780;SDS011;6454;43.304;24.344;2023-03-24T10:42:08;4.05;;;2.90;;
12780;SDS011;6454;43.304;24.344;2023-03-24T10:44:40;5.75;;;5.00;;
12780;SDS011;6454;43.304;24.344;2023-03-24T10:47:08;4.72;;;3.70;;
12780;SDS011;6454;43.304;24.344;2023-03-24T10:49:43;5.05;;;3.55;;
12780;SDS011;6454;43.304;24.344;2023-03-24T10:52:19;5.57;;;2.92;;
12780;SDS011;6454;43.304;24.344;2023-03-24T10:54:59;9.27;;;7.07;;
12780;SDS011;6454;43.304;24.344;2023-03-24T10:57:30;6.90;;;5.68;;
12780;SDS011;6454;43.304;24.344;2023-03-24T10:59:59;6.88;;;6.03;;
12780;SDS011;6454;43.304;24.344;2023-03-24T11:02:40;7.05;;;6.35;;
12780;SDS011;6454;43.304;24.344;2023-03-24T11:05:12;3.00;;;2.80;;
12780;SDS011;6454;43.304;24.344;2023-03-24T11:07:43;7.88;;;7.13;;
12780;SDS011;6454;43.304;24.344;2023-03-24T11:10:13;5.72;;;4.50;;
12780;SDS011;6454;43.304;24.344;2023-03-24T11:12:50;3.78;;;2.53;;
12780;SDS011;6454;43.304;24.344;2023-03-24T11:15:27;2.42;;;2.22;;
12780;SDS011;6454;43.304;24.344;2023-03-24T11:17:56;3.22;;;2.40;;
12780;SDS011;6454;43.304;24.344;2023-03-24T11:20:30;5.63;;;5.05;;
12780;SDS011;6454;43.304;24.344;2023-03-24T11:23:03;11.75;;;10.70;;
12780;SDS011;6454;43.304;24.344;2023-03-24T11:25:35;4.50;;;2.67;;
12780;SDS011;6454;43.304;24.344;2023-03-24T11:28:04;5.80;;;5.30;;
12780;SDS011;6454;43.304;24.344;2023-03-24T11:30:34;2.65;;;2.45;;
12780;SDS011;6454;43.304;24.344;2023-03-24T11:33:11;4.70;;;2.40;;
12780;SDS011;6454;43.304;24.344;2023-03-24T11:35:43;3.80;;;2.35;;
12780;SDS011;6454;43.304;24.344;2023-03-24T11:38:13;3.25;;;2.35;;
12780;SDS011;6454;43.304;24.344;2023-03-24T11:40:51;2.55;;;2.35;;
12780;SDS011;6454;43.304;24.344;2023-03-24T11:43:19;3.50;;;2.67;;
12780;SDS011;6454;43.304;24.344;2023-03-24T11:45:49;3.20;;;2.90;;
12780;SDS011;6454;43.304;24.344;2023-03-24T11:48:23;3.40;;;3.10;;
12780;SDS011;6454;43.304;24.344;2023-03-24T11:50:55;2.78;;;2.58;;
12780;SDS011;6454;43.304;24.344;2023-03-24T11:53:26;2.70;;;2.50;;
12780;SDS011;6454;43.304;24.344;2023-03-24T11:56:00;2.60;;;2.40;;
12780;SDS011;6454;43.304;24.344;2023-03-24T11:58:32;6.72;;;2.40;;
12780;SDS011;6454;43.304;24.344;2023-03-24T12:01:05;3.60;;;2.22;;
12780;SDS011;6454;43.304;24.344;2023-03-24T12:06:36;2.10;;;1.90;;
12780;SDS011;6454;43.304;24.344;2023-03-24T12:09:19;3.40;;;3.10;;
12780;SDS011;6454;43.304;24.344;2023-03-24T12:14:59;3.80;;;3.40;;
12780;SDS011;6454;43.304;24.344;2023-03-24T12:17:39;2.95;;;2.35;;
12780;SDS011;6454;43.304;24.344;2023-03-24T12:20:12;2.63;;;2.28;;
12780;SDS011;6454;43.304;24.344;2023-03-24T12:22:48;2.95;;;2.70;;
12780;SDS011;6454;43.304;24.344;2023-03-24T12:25:28;2.20;;;2.00;;
12780;SDS011;6454;43.304;24.344;2023-03-24T12:28:05;2.50;;;2.30;;
12780;SDS011;6454;43.304;24.344;2023-03-24T12:30:46;7.43;;;2.40;;
12780;SDS011;6454;43.304;24.344;2023-03-24T12:33:29;2.47;;;2.28;;
12780;SDS011;6454;43.304;24.344;2023-03-24T12:36:19;3.33;;;3.00;;
12780;SDS011;6454;43.304;24.344;2023-03-24T12:38:58;3.13;;;2.83;;
12780;SDS011;6454;43.304;24.344;2023-03-24T12:47:35;2.58;;;2.17;;
12780;SDS011;6454;43.304;24.344;2023-03-24T12:50:19;5.63;;;2.38;;
12780;SDS011;6454;43.304;24.344;2023-03-24T12:53:05;3.28;;;2.20;;
12780;SDS011;6454;43.304;24.344;2023-03-24T12:55:53;2.00;;;1.90;;
12780;SDS011;6454;43.304;24.344;2023-03-24T12:58:25;11.43;;;2.70;;
12780;SDS011;6454;43.304;24.344;2023-03-24T13:01:00;4.28;;;2.40;;
12780;SDS011;6454;43.304;24.344;2023-03-24T13:03:32;2.53;;;2.33;;
12780;SDS011;6454;43.304;24.344;2023-03-24T13:06:08;2.40;;;2.20;;
12780;SDS011;6454;43.304;24.344;2023-03-24T13:08:41;2.75;;;2.55;;
12780;SDS011;6454;43.304;24.344;2023-03-24T13:11:15;3.85;;;2.20;;
12780;SDS011;6454;43.304;24.344;2023-03-24T13:13:49;2.80;;;2.20;;
12780;SDS011;6454;43.304;24.344;2023-03-24T13:16:18;4.18;;;2.55;;
12780;SDS011;6454;43.304;24.344;2023-03-24T13:18:49;2.97;;;2.60;;
12780;SDS011;6454;43.304;24.344;2023-03-24T13:21:18;2.38;;;2.17;;
12780;SDS011;6454;43.304;24.344;2023-03-24T13:23:48;2.42;;;2.22;;
12780;SDS011;6454;43.304;24.344;2023-03-24T13:26:23;2.92;;;2.40;;
12780;SDS011;6454;43.304;24.344;2023-03-24T13:29:06;3.25;;;2.63;;
12780;SDS011;6454;43.304;24.344;2023-03-24T13:31:44;2.50;;;2.30;;
12780;SDS011;6454;43.304;24.344;2023-03-24T13:34:21;3.38;;;2.08;;
12780;SDS011;6454;43.304;24.344;2023-03-24T13:36:53;2.90;;;2.40;;
12780;SDS011;6454;43.304;24.344;2023-03-24T13:39:24;3.30;;;2.67;;
12780;SDS011;6454;43.304;24.344;2023-03-24T13:41:53;3.10;;;2.80;;
12780;SDS011;6454;43.304;24.344;2023-03-24T13:44:24;4.53;;;2.45;;
12780;SDS011;6454;43.304;24.344;2023-03-24T13:46:59;3.95;;;2.63;;
12780;SDS011;6454;43.304;24.344;2023-03-24T13:49:30;2.88;;;2.42;;
12780;SDS011;6454;43.304;24.344;2023-03-24T13:52:01;4.70;;;2.30;;
12780;SDS011;6454;43.304;24.344;2023-03-24T13:54:30;3.00;;;2.40;;
12780;SDS011;6454;43.304;24.344;2023-03-24T13:57:02;11.50;;;2.55;;
12780;SDS011;6454;43.304;24.344;2023-03-24T13:59:37;4.82;;;2.53;;
12780;SDS011;6454;43.304;24.344;2023-03-24T14:02:22;3.58;;;2.28;;
12780;SDS011;6454;43.304;24.344;2023-03-24T14:05:07;2.55;;;2.30;;
12780;SDS011;6454;43.304;24.344;2023-03-24T14:07:42;3.70;;;2.80;;
12780;SDS011;6454;43.304;24.344;2023-03-24T14:13:03;3.55;;;2.78;;
12780;SDS011;6454;43.304;24.344;2023-03-24T14:15:45;3.50;;;2.58;;
12780;SDS011;6454;43.304;24.344;2023-03-24T14:18:17;2.75;;;2.30;;
12780;SDS011;6454;43.304;24.344;2023-03-24T14:21:06;5.78;;;2.70;;
12780;SDS011;6454;43.304;24.344;2023-03-24T14:23:34;8.07;;;2.55;;
12780;SDS011;6454;43.304;24.344;2023-03-24T14:26:04;2.50;;;2.30;;
12780;SDS011;6454;43.304;24.344;2023-03-24T14:28:35;4.60;;;2.40;;
12780;SDS011;6454;43.304;24.344;2023-03-24T14:31:09;2.63;;;2.42;;
12780;SDS011;6454;43.304;24.344;2023-03-24T14:34:01;6.57;;;2.65;;
12780;SDS011;6454;43.304;24.344;2023-03-24T14:36:35;5.35;;;2.35;;
12780;SDS011;6454;43.304;24.344;2023-03-24T14:39:18;2.50;;;2.30;;
12780;SDS011;6454;43.304;24.344;2023-03-24T14:41:52;2.22;;;2.03;;
12780;SDS011;6454;43.304;24.344;2023-03-24T14:47:22;2.72;;;2.53;;
12780;SDS011;6454;43.304;24.344;2023-03-24T14:49:50;2.95;;;2.55;;
12780;SDS011;6454;43.304;24.344;2023-03-24T14:52:19;3.58;;;2.55;;
12780;SDS011;6454;43.304;24.344;2023-03-24T14:54:50;2.70;;;2.50;;
12780;SDS011;6454;43.304;24.344;2023-03-24T14:57:21;4.35;;;2.88;;
12780;SDS011;6454;43.304;24.344;2023-03-24T14:59:51;2.85;;;2.58;;
12780;SDS011;6454;43.304;24.344;2023-03-24T15:02:31;5.78;;;3.10;;
12780;SDS011;6454;43.304;24.344;2023-03-24T15:05:14;4.38;;;2.70;;
12780;SDS011;6454;43.304;24.344;2023-03-24T15:07:43;6.10;;;2.55;;
12780;SDS011;6454;43.304;24.344;2023-03-24T15:10:12;4.15;;;2.97;;
12780;SDS011;6454;43.304;24.344;2023-03-24T15:12:42;3.83;;;2.80;;
12780;SDS011;6454;43.304;24.344;2023-03-24T15:15:13;10.13;;;9.30;;
12780;SDS011;6454;43.304;24.344;2023-03-24T15:17:42;17.40;;;15.93;;
12780;SDS011;6454;43.304;24.344;2023-03-24T15:20:18;30.63;;;27.85;;
12780;SDS011;6454;43.304;24.344;2023-03-24T15:22:47;13.38;;;12.27;;
12780;SDS011;6454;43.304;24.344;2023-03-24T15:25:15;5.88;;;5.32;;
12780;SDS011;6454;43.304;24.344;2023-03-24T15:27:47;5.30;;;4.90;;
12780;SDS011;6454;43.304;24.344;2023-03-24T15:30:16;4.65;;;3.67;;
12780;SDS011;6454;43.304;24.344;2023-03-24T15:32:44;6.45;;;4.70;;
12780;SDS011;6454;43.304;24.344;2023-03-24T15:35:14;6.07;;;3.78;;
12780;SDS011;6454;43.304;24.344;2023-03-24T15:37:44;5.35;;;4.05;;
12780;SDS011;6454;43.304;24.344;2023-03-24T15:40:34;6.55;;;4.28;;